SEH221 LIPH-EDDS
Flight info
| Callsign | SEH221 |
|---|---|
| Flight time | 0h 53m |
| Altitude | 18000 |
| Route | VIC L613 ARGAX Y170 ROMIR T125 REUTL REUTL5A |
| Aircraft | A21N/M-SDE2E3FGHIRWXY/LB1 |
Departure
| Time | 2026-05-04 16:44 |
|---|---|
| Airport | Treviso Airport (LIPH) |
Arrival
| Time | 2026-05-04 17:38 |
|---|---|
| Airport | Stuttgart Airport (EDDS) |
| Time | Latitude | Longitude | Altitude | Speed | Heading |
|---|---|---|---|---|---|
| 2026-05-04 16:14 | 45.65366 | 12.20383 | 49 ft | 0 kts | 339° |
| 2026-05-04 16:32 | 45.65352 | 12.20391 | 48 ft | 0 kts | 339° |
| 2026-05-04 16:33 | 45.65331 | 12.20411 | 48 ft | 2 kts | 307° |
| 2026-05-04 16:33 | 45.65321 | 12.20451 | 48 ft | 2 kts | 269° |
| 2026-05-04 16:34 | 45.65325 | 12.20479 | 48 ft | 1 kts | 248° |
| 2026-05-04 16:34 | 45.65326 | 12.20481 | 48 ft | 0 kts | 248° |
| 2026-05-04 16:35 | 45.65325 | 12.20481 | 48 ft | 0 kts | 248° |
| 2026-05-04 16:37 | 45.65324 | 12.20475 | 48 ft | 2 kts | 248° |
| 2026-05-04 16:37 | 45.65274 | 12.20339 | 48 ft | 11 kts | 225° |
| 2026-05-04 16:38 | 45.65234 | 12.20298 | 48 ft | 0 kts | 206° |
| 2026-05-04 16:39 | 45.65131 | 12.20231 | 48 ft | 14 kts | 203° |
| 2026-05-04 16:39 | 45.64985 | 12.19920 | 48 ft | 24 kts | 249° |
| 2026-05-04 16:40 | 45.64862 | 12.19459 | 48 ft | 23 kts | 250° |
| 2026-05-04 16:40 | 45.64749 | 12.19045 | 51 ft | 21 kts | 249° |
| 2026-05-04 16:41 | 45.64653 | 12.18674 | 54 ft | 18 kts | 250° |
| 2026-05-04 16:41 | 45.64513 | 12.18144 | 51 ft | 19 kts | 250° |
| 2026-05-04 16:42 | 45.64480 | 12.18030 | 51 ft | 11 kts | 68° |
| 2026-05-04 16:43 | 45.64488 | 12.18059 | 51 ft | 1 kts | 68° |
| 2026-05-04 16:43 | 45.64508 | 12.18131 | 51 ft | 25 kts | 68° |
| 2026-05-04 16:43 | 45.64679 | 12.18768 | 53 ft | 108 kts | 69° |
| 2026-05-04 16:44 | 45.65058 | 12.24986 | 2185 ft | 184 kts | 139° |
| 2026-05-04 16:45 | 45.62508 | 12.25305 | 3081 ft | 217 kts | 210° |
| 2026-05-04 16:46 | 45.61451 | 12.18634 | 4748 ft | 271 kts | 282° |
| 2026-05-04 16:46 | 45.62160 | 12.13369 | 6539 ft | 275 kts | 276° |
| 2026-05-04 16:47 | 45.62536 | 12.07910 | 8202 ft | 281 kts | 273° |
| 2026-05-04 16:47 | 45.62760 | 12.02358 | 9768 ft | 286 kts | 272° |
| 2026-05-04 16:48 | 45.63038 | 11.93427 | 11219 ft | 324 kts | 272° |
| 2026-05-04 16:48 | 45.63133 | 11.90143 | 11526 ft | 342 kts | 272° |
| 2026-05-04 16:49 | 45.63334 | 11.83040 | 12104 ft | 374 kts | 272° |
| 2026-05-04 16:49 | 45.63538 | 11.75466 | 13254 ft | 386 kts | 272° |
| 2026-05-04 16:50 | 45.64486 | 11.67951 | 14629 ft | 391 kts | 296° |
| 2026-05-04 16:50 | 45.68013 | 11.62091 | 16057 ft | 393 kts | 317° |
| 2026-05-04 16:51 | 45.72136 | 11.56951 | 17302 ft | 397 kts | 317° |
| 2026-05-04 16:51 | 45.74192 | 11.54375 | 17891 ft | 399 kts | 317° |
| 2026-05-04 16:51 | 45.78358 | 11.49107 | 19043 ft | 402 kts | 316° |
| 2026-05-04 16:52 | 45.82552 | 11.43765 | 20122 ft | 405 kts | 316° |
| 2026-05-04 16:52 | 45.84626 | 11.41116 | 20635 ft | 407 kts | 316° |
| 2026-05-04 16:53 | 45.88877 | 11.35674 | 21635 ft | 410 kts | 316° |
| 2026-05-04 16:53 | 45.95244 | 11.27499 | 23057 ft | 414 kts | 316° |
| 2026-05-04 16:54 | 45.97380 | 11.24748 | 23502 ft | 415 kts | 316° |
| 2026-05-04 16:55 | 46.06032 | 11.13613 | 25137 ft | 420 kts | 316° |
| 2026-05-04 16:55 | 46.10376 | 11.08074 | 26051 ft | 417 kts | 316° |
| 2026-05-04 16:56 | 46.14631 | 11.02600 | 27135 ft | 410 kts | 316° |
| 2026-05-04 16:56 | 46.20930 | 10.94407 | 28443 ft | 405 kts | 316° |
| 2026-05-04 16:57 | 46.23001 | 10.91704 | 28830 ft | 404 kts | 316° |
| 2026-05-04 16:57 | 46.27166 | 10.86261 | 29595 ft | 402 kts | 316° |
| 2026-05-04 16:58 | 46.33337 | 10.78179 | 30612 ft | 401 kts | 316° |
| 2026-05-04 16:58 | 46.35392 | 10.75480 | 30959 ft | 400 kts | 316° |
| 2026-05-04 16:59 | 46.39485 | 10.70097 | 31700 ft | 396 kts | 316° |
| 2026-05-04 17:00 | 46.47489 | 10.59532 | 33045 ft | 388 kts | 316° |
| 2026-05-04 17:00 | 46.53405 | 10.51697 | 33892 ft | 383 kts | 316° |
| 2026-05-04 17:01 | 46.57320 | 10.46508 | 34368 ft | 381 kts | 316° |
| 2026-05-04 17:01 | 46.61306 | 10.41401 | 34707 ft | 383 kts | 320° |
| 2026-05-04 17:02 | 46.65596 | 10.36801 | 34990 ft | 386 kts | 324° |
| 2026-05-04 17:02 | 46.70160 | 10.32678 | 35308 ft | 387 kts | 324° |
| 2026-05-04 17:03 | 46.72342 | 10.30428 | 35447 ft | 386 kts | 320° |
| 2026-05-04 17:03 | 46.74386 | 10.27891 | 35595 ft | 385 kts | 315° |
| 2026-05-04 17:03 | 46.77962 | 10.22102 | 35838 ft | 386 kts | 307° |
| 2026-05-04 17:04 | 46.80782 | 10.15495 | 36073 ft | 387 kts | 298° |
| 2026-05-04 17:04 | 46.82970 | 10.08263 | 36111 ft | 389 kts | 295° |
| 2026-05-04 17:05 | 46.87114 | 9.93740 | 36114 ft | 389 kts | 294° |
| 2026-05-04 17:06 | 46.90213 | 9.82795 | 36114 ft | 388 kts | 294° |
| 2026-05-04 17:07 | 46.92935 | 9.73132 | 36112 ft | 385 kts | 294° |
| 2026-05-04 17:07 | 46.95294 | 9.64728 | 36100 ft | 383 kts | 294° |
| 2026-05-04 17:08 | 46.98302 | 9.53966 | 36060 ft | 380 kts | 294° |
| 2026-05-04 17:09 | 47.00286 | 9.46843 | 36035 ft | 378 kts | 294° |
| 2026-05-04 17:09 | 47.02745 | 9.40164 | 36012 ft | 374 kts | 306° |
| 2026-05-04 17:10 | 47.12823 | 9.28472 | 35969 ft | 384 kts | 333° |
| 2026-05-04 17:11 | 47.17990 | 9.26399 | 35965 ft | 392 kts | 342° |
| 2026-05-04 17:12 | 47.26016 | 9.24245 | 35963 ft | 392 kts | 342° |
| 2026-05-04 17:13 | 47.39377 | 9.20719 | 35434 ft | 396 kts | 342° |
| 2026-05-04 17:14 | 47.47545 | 9.18293 | 32969 ft | 407 kts | 341° |
| 2026-05-04 17:14 | 47.50301 | 9.17417 | 32074 ft | 411 kts | 341° |
| 2026-05-04 17:14 | 47.55926 | 9.15643 | 30209 ft | 420 kts | 341° |
| 2026-05-04 17:15 | 47.58751 | 9.14755 | 29282 ft | 424 kts | 341° |
| 2026-05-04 17:15 | 47.64563 | 9.12966 | 27413 ft | 434 kts | 345° |
| 2026-05-04 17:16 | 47.70674 | 9.14181 | 25443 ft | 473 kts | 17° |
| 2026-05-04 17:16 | 47.77496 | 9.25101 | 23303 ft | 494 kts | 48° |
| 2026-05-04 17:17 | 47.79837 | 9.28630 | 22629 ft | 473 kts | 28° |
| 2026-05-04 17:17 | 47.88674 | 9.31291 | 20813 ft | 425 kts | 353° |
| 2026-05-04 17:18 | 47.91622 | 9.31286 | 20209 ft | 422 kts | 353° |
| 2026-05-04 17:18 | 47.97400 | 9.31476 | 19020 ft | 417 kts | 355° |
| 2026-05-04 17:19 | 48.03140 | 9.31847 | 17839 ft | 412 kts | 356° |
| 2026-05-04 17:19 | 48.08814 | 9.32269 | 16676 ft | 406 kts | 356° |
| 2026-05-04 17:20 | 48.14243 | 9.32681 | 15554 ft | 401 kts | 356° |
| 2026-05-04 17:20 | 48.20104 | 9.33400 | 14347 ft | 398 kts | 360° |
| 2026-05-04 17:20 | 48.22797 | 9.33845 | 13790 ft | 395 kts | 0° |
| 2026-05-04 17:21 | 48.28160 | 9.34735 | 12680 ft | 390 kts | 0° |
| 2026-05-04 17:21 | 48.33450 | 9.35597 | 11567 ft | 386 kts | 0° |
| 2026-05-04 17:22 | 48.36035 | 9.35835 | 11191 ft | 374 kts | 354° |
| 2026-05-04 17:22 | 48.38582 | 9.35579 | 10949 ft | 357 kts | 347° |
| 2026-05-04 17:23 | 48.45423 | 9.33493 | 10420 ft | 318 kts | 342° |
| 2026-05-04 17:23 | 48.47541 | 9.32800 | 10219 ft | 308 kts | 342° |
| 2026-05-04 17:23 | 48.51566 | 9.31490 | 9692 ft | 294 kts | 342° |
| 2026-05-04 17:24 | 48.53483 | 9.30884 | 9496 ft | 285 kts | 342° |
| 2026-05-04 17:24 | 48.58181 | 9.26800 | 9102 ft | 259 kts | 307° |
| 2026-05-04 17:25 | 48.59188 | 9.24547 | 8975 ft | 257 kts | 295° |
| 2026-05-04 17:25 | 48.60064 | 9.19376 | 8726 ft | 258 kts | 272° |
| 2026-05-04 17:26 | 48.59484 | 9.14002 | 8477 ft | 261 kts | 258° |
| 2026-05-04 17:26 | 48.58043 | 9.06096 | 8103 ft | 261 kts | 257° |
| 2026-05-04 17:27 | 48.57048 | 9.00859 | 7991 ft | 261 kts | 257° |
| 2026-05-04 17:27 | 48.56036 | 8.95583 | 7989 ft | 261 kts | 257° |
| 2026-05-04 17:28 | 48.55030 | 8.90368 | 7989 ft | 260 kts | 257° |
| 2026-05-04 17:29 | 48.53506 | 8.82495 | 7989 ft | 260 kts | 256° |
| 2026-05-04 17:29 | 48.51983 | 8.74675 | 7990 ft | 259 kts | 256° |
| 2026-05-04 17:30 | 48.51284 | 8.66807 | 7984 ft | 257 kts | 291° |
| 2026-05-04 17:31 | 48.53914 | 8.63261 | 7990 ft | 273 kts | 342° |
| 2026-05-04 17:31 | 48.58860 | 8.66775 | 7524 ft | 290 kts | 63° |
| 2026-05-04 17:32 | 48.59883 | 8.72538 | 6956 ft | 282 kts | 77° |
| 2026-05-04 17:33 | 48.61240 | 8.80956 | 6124 ft | 269 kts | 72° |
| 2026-05-04 17:33 | 48.61736 | 8.83676 | 5840 ft | 263 kts | 72° |
| 2026-05-04 17:34 | 48.63142 | 8.91194 | 5015 ft | 230 kts | 70° |
| 2026-05-04 17:34 | 48.63576 | 8.93499 | 4632 ft | 225 kts | 70° |
| 2026-05-04 17:35 | 48.64844 | 9.00229 | 3986 ft | 221 kts | 70° |
| 2026-05-04 17:35 | 48.65666 | 9.04613 | 3508 ft | 212 kts | 70° |
| 2026-05-04 17:35 | 48.66065 | 9.06735 | 3184 ft | 205 kts | 70° |
| 2026-05-04 17:36 | 48.66436 | 9.08714 | 2891 ft | 187 kts | 70° |
| 2026-05-04 17:36 | 48.66773 | 9.10504 | 2620 ft | 170 kts | 70° |
| 2026-05-04 17:36 | 48.67086 | 9.12167 | 2327 ft | 157 kts | 70° |
| 2026-05-04 17:36 | 48.67370 | 9.13686 | 2052 ft | 147 kts | 70° |
| 2026-05-04 17:37 | 48.67645 | 9.15165 | 1943 ft | 147 kts | 70° |
| 2026-05-04 17:37 | 48.67928 | 9.16672 | 1755 ft | 147 kts | 70° |
| 2026-05-04 17:37 | 48.68219 | 9.18132 | 1628 ft | 146 kts | 69° |
| 2026-05-04 17:37 | 48.68511 | 9.19612 | 1432 ft | 148 kts | 72° |
| 2026-05-04 17:38 | 48.68776 | 9.21054 | 1284 ft | 126 kts | 70° |
| 2026-05-04 17:38 | 48.68970 | 9.22069 | 1284 ft | 76 kts | 72° |
| 2026-05-04 17:38 | 48.69064 | 9.22588 | 1284 ft | 41 kts | 71° |
| 2026-05-04 17:38 | 48.69138 | 9.22888 | 1284 ft | 21 kts | 53° |
| 2026-05-04 17:39 | 48.69272 | 9.23091 | 1284 ft | 12 kts | 46° |
| 2026-05-04 17:39 | 48.69334 | 9.23126 | 1284 ft | 10 kts | 309° |
| 2026-05-04 17:39 | 48.69321 | 9.23024 | 1284 ft | 10 kts | 249° |
| 2026-05-04 17:40 | 48.69297 | 9.22918 | 1284 ft | 11 kts | 251° |
| 2026-05-04 17:40 | 48.69273 | 9.22796 | 1284 ft | 13 kts | 255° |
| 2026-05-04 17:40 | 48.69249 | 9.22655 | 1284 ft | 14 kts | 255° |
| 2026-05-04 17:40 | 48.69248 | 9.22501 | 1284 ft | 15 kts | 301° |